Time;durP1;ratioP1;P1;durP2;ratioP2;P2;SDS_P1;SDS_P2;PMS_P1;PMS_P2;Temp;Humidity;BMP_temperature;BMP_pressure;BME280_temperature;BME280_humidity;BME280_pressure;Samples;Min_cycle;Max_cycle;Signal;HPM_P1;HPM_P2
2023/03/21 00:00:02;;;;;;;4.23;2.33;;;;;;;;;;4968633;28;20272;-79
2023/03/21 00:02:28;;;;;;;2.90;2.57;;;;;;;;;;4962715;28;20236;-79
2023/03/21 00:04:53;;;;;;;2.40;2.20;;;;;;;;;;4967723;28;20179;-79
2023/03/21 00:07:18;;;;;;;2.70;2.43;;;;;;;;;;4971296;28;20208;-79
2023/03/21 00:09:44;;;;;;;2.03;1.80;;;;;;;;;;4970560;28;20196;-79
2023/03/21 00:12:10;;;;;;;2.30;1.90;;;;;;;;;;4970932;28;20190;-79
2023/03/21 00:14:36;;;;;;;2.30;1.90;;;;;;;;;;4974389;28;20206;-79
2023/03/21 00:17:02;;;;;;;2.70;2.50;;;;;;;;;;4976901;28;20182;-79
2023/03/21 00:19:27;;;;;;;2.60;2.10;;;;;;;;;;4973547;28;20208;-79
2023/03/21 00:21:54;;;;;;;2.30;2.10;;;;;;;;;;4972570;28;20193;-79
2023/03/21 00:24:20;;;;;;;2.40;2.20;;;;;;;;;;4969573;28;20186;-79
2023/03/21 00:26:46;;;;;;;3.60;1.80;;;;;;;;;;4973483;28;20174;-79
2023/03/21 00:29:11;;;;;;;1.90;1.70;;;;;;;;;;4973306;28;20186;-79
2023/03/21 00:31:36;;;;;;;2.37;2.00;;;;;;;;;;4973539;28;20179;-79
2023/03/21 00:34:01;;;;;;;1.90;1.80;;;;;;;;;;4971057;28;20218;-79
2023/03/21 00:36:27;;;;;;;2.37;1.70;;;;;;;;;;4971283;28;20188;-79
2023/03/21 00:38:52;;;;;;;1.60;1.50;;;;;;;;;;4981594;28;20193;-79
2023/03/21 00:41:17;;;;;;;2.20;2.00;;;;;;;;;;4974462;28;20198;-79
2023/03/21 00:43:43;;;;;;;1.70;1.53;;;;;;;;;;4974195;28;20239;-79
2023/03/21 00:46:08;;;;;;;2.17;1.90;;;;;;;;;;4975383;28;20189;-80
2023/03/21 00:48:33;;;;;;;2.00;1.80;;;;;;;;;;4974403;28;20218;-79
2023/03/21 00:50:59;;;;;;;2.27;2.07;;;;;;;;;;4974149;28;20178;-79
2023/03/21 00:53:25;;;;;;;2.20;2.00;;;;;;;;;;4974654;28;20185;-79
2023/03/21 00:55:50;;;;;;;2.27;1.97;;;;;;;;;;4973076;28;20188;-79
2023/03/21 00:58:15;;;;;;;2.93;1.90;;;;;;;;;;4976241;28;20206;-79
2023/03/21 01:00:40;;;;;;;2.10;1.90;;;;;;;;;;4973801;28;20189;-79
2023/03/21 01:03:07;;;;;;;4.50;1.93;;;;;;;;;;4973149;28;20181;-79
2023/03/21 01:08:22;;;;;;;2.00;1.80;;;;;;;;;;4973902;28;20254;-79
2023/03/21 01:10:48;;;;;;;2.20;2.00;;;;;;;;;;4975431;28;20182;-79
2023/03/21 01:13:14;;;;;;;2.17;1.67;;;;;;;;;;4968463;28;20212;-79
2023/03/21 01:15:47;;;;;;;1.87;1.50;;;;;;;;;;4974996;28;20177;-79
2023/03/21 01:18:13;;;;;;;1.93;1.70;;;;;;;;;;4986573;28;20235;-79
2023/03/21 01:20:42;;;;;;;2.20;2.00;;;;;;;;;;4975047;28;20256;-79
2023/03/21 01:23:08;;;;;;;2.60;1.80;;;;;;;;;;4971959;28;20193;-79
2023/03/21 01:25:33;;;;;;;2.00;1.67;;;;;;;;;;4973688;28;20173;-79
2023/03/21 01:27:59;;;;;;;2.27;2.07;;;;;;;;;;4975837;28;20268;-79
2023/03/21 01:30:24;;;;;;;3.27;1.73;;;;;;;;;;4979273;28;20189;-79
2023/03/21 01:32:49;;;;;;;3.10;2.20;;;;;;;;;;4973075;28;20314;-79
2023/03/21 01:35:14;;;;;;;2.87;2.07;;;;;;;;;;4974156;28;20176;-79
2023/03/21 01:37:40;;;;;;;2.10;1.90;;;;;;;;;;4970411;28;20232;-79
2023/03/21 01:40:11;;;;;;;2.10;1.90;;;;;;;;;;4971502;28;20180;-79
2023/03/21 01:42:36;;;;;;;2.00;1.80;;;;;;;;;;4974297;28;20209;-79
2023/03/21 01:45:04;;;;;;;2.83;1.80;;;;;;;;;;4977689;28;20238;-79
2023/03/21 01:47:30;;;;;;;2.63;2.00;;;;;;;;;;4988908;28;20263;-79
2023/03/21 01:49:58;;;;;;;2.10;1.90;;;;;;;;;;4974126;28;20281;-79
2023/03/21 01:52:25;;;;;;;2.23;1.87;;;;;;;;;;4972743;28;20186;-79
2023/03/21 01:54:53;;;;;;;4.00;2.47;;;;;;;;;;4970518;28;20215;-79
2023/03/21 01:57:22;;;;;;;2.90;2.20;;;;;;;;;;4971451;28;20180;-79
2023/03/21 01:59:50;;;;;;;3.37;2.40;;;;;;;;;;4971051;28;20228;-79
2023/03/21 02:02:22;;;;;;;2.30;2.10;;;;;;;;;;4970373;28;20181;-79
2023/03/21 02:04:49;;;;;;;2.27;1.80;;;;;;;;;;4965896;28;20269;-79
2023/03/21 02:07:16;;;;;;;2.77;1.90;;;;;;;;;;4968965;28;20175;-79
2023/03/21 02:09:45;;;;;;;2.10;1.70;;;;;;;;;;4971106;28;20184;-79
2023/03/21 02:12:10;;;;;;;1.77;1.60;;;;;;;;;;4974419;28;20181;-79
2023/03/21 02:14:36;;;;;;;2.50;1.87;;;;;;;;;;4972880;28;20253;-79
2023/03/21 02:17:16;;;;;;;2.10;1.90;;;;;;;;;;4969165;28;20186;-79
2023/03/21 02:19:57;;;;;;;2.10;1.90;;;;;;;;;;4970872;28;20279;-79
2023/03/21 02:22:36;;;;;;;1.90;1.47;;;;;;;;;;4970957;28;20181;-79
2023/03/21 02:25:11;;;;;;;1.70;1.60;;;;;;;;;;4968328;28;20249;-79
2023/03/21 02:27:45;;;;;;;3.07;1.90;;;;;;;;;;4986539;28;20233;-79
2023/03/21 02:30:30;;;;;;;2.27;2.07;;;;;;;;;;4969462;28;20181;-79
2023/03/21 02:33:14;;;;;;;1.93;1.83;;;;;;;;;;4971613;28;20181;-79
2023/03/21 02:35:43;;;;;;;1.87;1.70;;;;;;;;;;4968998;28;20214;-79
2023/03/21 02:38:17;;;;;;;1.67;1.57;;;;;;;;;;4970951;28;20204;-79
2023/03/21 02:40:52;;;;;;;3.43;1.70;;;;;;;;;;4961158;28;20181;-79
2023/03/21 02:43:30;;;;;;;1.60;1.40;;;;;;;;;;4973042;28;20292;-79
2023/03/21 02:45:59;;;;;;;2.10;1.90;;;;;;;;;;4977805;28;20188;-79
2023/03/21 02:48:28;;;;;;;1.50;1.37;;;;;;;;;;4974588;28;20182;-79
2023/03/21 02:50:55;;;;;;;1.80;1.70;;;;;;;;;;4976647;28;20188;-79
2023/03/21 02:53:24;;;;;;;1.50;1.40;;;;;;;;;;4992296;28;20191;-79
2023/03/21 02:55:50;;;;;;;2.17;1.80;;;;;;;;;;4995488;28;20186;-79
2023/03/21 02:58:17;;;;;;;3.40;1.80;;;;;;;;;;4991643;28;20343;-79
2023/03/21 03:00:43;;;;;;;1.50;1.40;;;;;;;;;;4974452;28;20179;-79
2023/03/21 03:03:08;;;;;;;2.53;1.77;;;;;;;;;;4973601;28;20190;-79
2023/03/21 03:05:35;;;;;;;2.03;1.60;;;;;;;;;;4992161;28;20208;-79
2023/03/21 03:08:00;;;;;;;2.10;1.53;;;;;;;;;;4973200;28;20193;-79
2023/03/21 03:10:44;;;;;;;1.63;1.53;;;;;;;;;;4988436;28;20210;-79
2023/03/21 03:13:15;;;;;;;2.87;1.70;;;;;;;;;;4974172;28;20285;-79
2023/03/21 03:15:56;;;;;;;2.10;1.70;;;;;;;;;;4975060;28;20257;-79
2023/03/21 03:18:28;;;;;;;1.70;1.33;;;;;;;;;;4990762;28;20199;-79
2023/03/21 03:21:12;;;;;;;1.87;1.77;;;;;;;;;;4974767;28;20261;-79
2023/03/21 03:23:46;;;;;;;1.80;1.70;;;;;;;;;;4986466;28;20269;-79
2023/03/21 03:26:14;;;;;;;2.20;2.00;;;;;;;;;;4972624;28;20186;-79
2023/03/21 03:28:45;;;;;;;1.80;1.70;;;;;;;;;;4972788;28;20184;-79
2023/03/21 03:31:12;;;;;;;1.60;1.50;;;;;;;;;;4987335;28;20218;-79
2023/03/21 03:33:40;;;;;;;1.73;1.63;;;;;;;;;;4976753;28;20183;-79
2023/03/21 03:36:09;;;;;;;2.57;1.67;;;;;;;;;;4971979;28;20227;-79
2023/03/21 03:38:35;;;;;;;1.73;1.63;;;;;;;;;;4990616;28;20200;-79
2023/03/21 03:41:05;;;;;;;3.17;1.77;;;;;;;;;;4972232;28;20243;-79
2023/03/21 03:43:33;;;;;;;2.07;1.70;;;;;;;;;;4988964;28;20252;-79
2023/03/21 03:46:03;;;;;;;2.17;1.80;;;;;;;;;;4984852;28;20279;-79
2023/03/21 03:48:31;;;;;;;2.23;1.73;;;;;;;;;;4984246;28;20243;-79
2023/03/21 03:51:02;;;;;;;2.50;2.17;;;;;;;;;;4978028;28;20181;-79
2023/03/21 03:53:29;;;;;;;3.30;2.27;;;;;;;;;;4994053;28;20467;-79
2023/03/21 03:55:55;;;;;;;2.53;2.00;;;;;;;;;;4983936;28;20256;-79
2023/03/21 03:58:21;;;;;;;4.73;1.80;;;;;;;;;;4977394;28;20204;-79
2023/03/21 04:00:47;;;;;;;4.97;2.17;;;;;;;;;;4977215;28;20271;-79
2023/03/21 04:03:13;;;;;;;5.93;2.60;;;;;;;;;;4976583;28;20284;-79
2023/03/21 04:05:38;;;;;;;2.63;2.10;;;;;;;;;;4995317;28;20224;-79
2023/03/21 04:08:05;;;;;;;3.33;2.30;;;;;;;;;;4979681;28;20237;-79
2023/03/21 04:10:30;;;;;;;2.20;2.00;;;;;;;;;;4974655;28;20191;-79
2023/03/21 04:12:55;;;;;;;3.10;2.13;;;;;;;;;;4982196;28;20263;-79
2023/03/21 04:15:21;;;;;;;4.77;3.63;;;;;;;;;;4978046;28;20187;-79
2023/03/21 04:17:46;;;;;;;2.93;2.50;;;;;;;;;;4977227;28;20208;-79
2023/03/21 04:20:12;;;;;;;3.77;3.07;;;;;;;;;;4977834;28;20181;-79
2023/03/21 04:22:37;;;;;;;3.77;2.43;;;;;;;;;;4977054;28;20176;-79
2023/03/21 04:25:04;;;;;;;4.37;2.00;;;;;;;;;;4973769;28;20182;-79
2023/03/21 04:27:30;;;;;;;2.73;2.30;;;;;;;;;;4975287;28;20232;-79
2023/03/21 04:29:55;;;;;;;3.57;2.10;;;;;;;;;;4981319;28;20165;-79
2023/03/21 04:32:23;;;;;;;4.00;2.53;;;;;;;;;;4975565;28;20206;-79
2023/03/21 04:34:48;;;;;;;3.27;2.97;;;;;;;;;;4976849;28;20177;-79
2023/03/21 04:37:18;;;;;;;3.10;2.50;;;;;;;;;;4968433;28;20179;-79
2023/03/21 04:39:45;;;;;;;4.77;2.53;;;;;;;;;;4981422;28;20195;-79
2023/03/21 04:42:10;;;;;;;5.00;2.53;;;;;;;;;;4992681;28;20196;-79
2023/03/21 04:44:35;;;;;;;2.80;2.47;;;;;;;;;;4994301;28;20232;-79
2023/03/21 04:47:00;;;;;;;3.20;2.80;;;;;;;;;;4980996;28;20227;-79
2023/03/21 04:49:26;;;;;;;4.97;3.70;;;;;;;;;;4976608;28;20177;-79
2023/03/21 04:51:51;;;;;;;3.67;3.10;;;;;;;;;;4986554;28;20176;-79
2023/03/21 04:54:16;;;;;;;4.17;3.27;;;;;;;;;;4978156;28;20185;-79
2023/03/21 04:56:43;;;;;;;4.10;3.10;;;;;;;;;;4975908;28;20185;-79
2023/03/21 04:59:10;;;;;;;3.17;2.70;;;;;;;;;;4976950;28;20208;-79
2023/03/21 05:01:35;;;;;;;4.03;2.90;;;;;;;;;;4971218;28;20327;-79
2023/03/21 05:04:02;;;;;;;3.40;2.50;;;;;;;;;;4995828;28;20263;-79
2023/03/21 05:06:27;;;;;;;3.10;2.17;;;;;;;;;;4991852;28;20207;-78
2023/03/21 05:08:58;;;;;;;3.10;2.47;;;;;;;;;;4972251;28;20219;-79
2023/03/21 05:11:24;;;;;;;3.53;2.63;;;;;;;;;;4975477;28;20203;-78
2023/03/21 05:13:49;;;;;;;2.50;2.10;;;;;;;;;;4977376;28;20222;-78
2023/03/21 05:16:14;;;;;;;3.97;2.70;;;;;;;;;;4975663;28;20180;-79
2023/03/21 05:18:40;;;;;;;6.10;2.50;;;;;;;;;;4992229;28;20196;-79
2023/03/21 05:21:12;;;;;;;4.53;3.27;;;;;;;;;;4975421;28;20210;-79
2023/03/21 05:23:37;;;;;;;4.73;2.90;;;;;;;;;;4974394;28;20177;-79
2023/03/21 05:26:06;;;;;;;4.97;3.63;;;;;;;;;;4976180;28;20201;-78
2023/03/21 05:28:35;;;;;;;8.50;4.10;;;;;;;;;;4977450;28;20175;-79
2023/03/21 05:31:01;;;;;;;7.43;4.73;;;;;;;;;;4972856;28;20247;-79
2023/03/21 05:33:26;;;;;;;5.73;4.07;;;;;;;;;;4989644;28;20296;-78
2023/03/21 05:35:51;;;;;;;4.73;4.10;;;;;;;;;;4985756;28;20185;-79
2023/03/21 05:38:16;;;;;;;7.30;4.33;;;;;;;;;;4976123;28;20215;-78
2023/03/21 05:40:45;;;;;;;5.00;3.73;;;;;;;;;;4973198;28;20181;-79
2023/03/21 05:43:10;;;;;;;4.33;2.67;;;;;;;;;;4993793;28;20347;-78
2023/03/21 05:45:36;;;;;;;3.43;2.80;;;;;;;;;;4969229;28;20228;-78
2023/03/21 05:48:01;;;;;;;4.67;3.13;;;;;;;;;;4967701;28;20181;-79
2023/03/21 05:50:26;;;;;;;3.63;2.70;;;;;;;;;;4973550;28;20187;-79
2023/03/21 05:52:52;;;;;;;3.80;3.17;;;;;;;;;;4972455;28;20265;-79
2023/03/21 05:55:17;;;;;;;4.60;3.13;;;;;;;;;;4973512;28;20183;-78
2023/03/21 05:57:42;;;;;;;3.93;2.73;;;;;;;;;;4972133;28;20269;-79
2023/03/21 06:00:08;;;;;;;3.47;2.93;;;;;;;;;;4973285;28;20251;-79
2023/03/21 06:02:34;;;;;;;3.57;3.20;;;;;;;;;;4973649;28;20230;-78
2023/03/21 06:04:59;;;;;;;6.63;4.83;;;;;;;;;;4970886;28;20176;-79
2023/03/21 06:07:24;;;;;;;8.73;7.10;;;;;;;;;;4971855;28;20183;-78
2023/03/21 06:09:50;;;;;;;6.13;3.33;;;;;;;;;;4972716;28;20180;-78
2023/03/21 06:12:15;;;;;;;4.07;3.10;;;;;;;;;;4973604;28;20183;-79
2023/03/21 06:14:44;;;;;;;3.60;2.77;;;;;;;;;;4972045;28;20185;-79
2023/03/21 06:17:09;;;;;;;4.67;3.33;;;;;;;;;;4977269;28;20188;-79
2023/03/21 06:19:34;;;;;;;8.13;3.07;;;;;;;;;;4972690;28;20204;-78
2023/03/21 06:22:00;;;;;;;6.70;2.67;;;;;;;;;;4973795;28;20172;-78
2023/03/21 06:24:26;;;;;;;7.37;3.17;;;;;;;;;;4967987;28;20222;-79
2023/03/21 06:26:51;;;;;;;2.87;2.60;;;;;;;;;;4970381;28;20169;-78
2023/03/21 06:29:16;;;;;;;3.53;3.00;;;;;;;;;;4972337;28;20189;-78
2023/03/21 06:31:41;;;;;;;3.10;2.67;;;;;;;;;;4971219;28;20181;-79
2023/03/21 06:34:09;;;;;;;4.07;3.00;;;;;;;;;;4973447;28;20184;-79
2023/03/21 06:36:34;;;;;;;6.10;2.93;;;;;;;;;;4969620;28;20184;-79
2023/03/21 06:38:59;;;;;;;3.30;2.67;;;;;;;;;;4972341;28;20195;-78
2023/03/21 06:41:24;;;;;;;7.17;3.20;;;;;;;;;;4970495;28;20173;-79
2023/03/21 06:43:50;;;;;;;6.77;2.97;;;;;;;;;;4969540;28;20238;-79
2023/03/21 06:46:15;;;;;;;3.40;2.40;;;;;;;;;;4971131;28;20279;-78
2023/03/21 06:48:43;;;;;;;5.60;2.53;;;;;;;;;;4971216;28;20211;-79
2023/03/21 06:51:09;;;;;;;3.77;3.17;;;;;;;;;;4970414;28;20178;-80
2023/03/21 06:53:34;;;;;;;7.67;3.83;;;;;;;;;;4972412;28;20185;-79
2023/03/21 06:55:59;;;;;;;3.57;3.00;;;;;;;;;;4971543;28;20207;-78
2023/03/21 06:58:25;;;;;;;4.13;2.80;;;;;;;;;;4970861;28;20193;-79
2023/03/21 07:00:51;;;;;;;3.33;2.57;;;;;;;;;;4970531;28;20181;-78
2023/03/21 07:03:18;;;;;;;3.03;2.63;;;;;;;;;;4975334;28;20259;-79
2023/03/21 07:05:43;;;;;;;2.40;2.20;;;;;;;;;;4971963;28;20179;-79
2023/03/21 07:08:11;;;;;;;2.43;2.23;;;;;;;;;;4972008;28;20186;-79
2023/03/21 07:10:40;;;;;;;3.37;2.50;;;;;;;;;;4971628;28;20172;-79
2023/03/21 07:13:05;;;;;;;2.90;2.60;;;;;;;;;;4970781;28;20184;-78
2023/03/21 07:15:32;;;;;;;2.73;2.40;;;;;;;;;;4978468;28;20259;-79
2023/03/21 07:17:57;;;;;;;4.13;2.20;;;;;;;;;;4970337;28;20203;-79
2023/03/21 07:20:22;;;;;;;4.03;2.73;;;;;;;;;;4971643;28;20188;-79
2023/03/21 07:22:47;;;;;;;3.07;2.23;;;;;;;;;;4971779;28;20178;-78
2023/03/21 07:25:13;;;;;;;3.83;2.50;;;;;;;;;;4972267;28;20173;-79
2023/03/21 07:27:38;;;;;;;3.37;3.03;;;;;;;;;;4971762;28;20177;-79
2023/03/21 07:30:04;;;;;;;2.70;2.30;;;;;;;;;;4969791;28;20182;-79
2023/03/21 07:32:33;;;;;;;4.57;2.30;;;;;;;;;;4972307;28;20184;-79
2023/03/21 07:34:59;;;;;;;3.60;2.30;;;;;;;;;;4970733;28;20177;-79
2023/03/21 07:37:25;;;;;;;4.47;2.63;;;;;;;;;;4971038;28;20169;-79
2023/03/21 07:39:50;;;;;;;5.00;2.57;;;;;;;;;;4968316;28;20177;-79
2023/03/21 07:42:16;;;;;;;2.60;2.17;;;;;;;;;;4971658;28;20204;-79
2023/03/21 07:44:41;;;;;;;5.13;2.20;;;;;;;;;;4972278;28;20225;-79
2023/03/21 07:47:06;;;;;;;6.37;2.63;;;;;;;;;;4974843;28;20200;-79
2023/03/21 07:49:32;;;;;;;2.63;2.37;;;;;;;;;;4968368;28;20200;-79
2023/03/21 07:51:58;;;;;;;3.57;1.90;;;;;;;;;;4971061;28;20181;-78
2023/03/21 07:54:23;;;;;;;3.30;1.87;;;;;;;;;;4970128;28;20212;-79
2023/03/21 07:56:49;;;;;;;10.43;5.73;;;;;;;;;;4977663;28;20258;-79
2023/03/21 07:59:14;;;;;;;2.63;2.10;;;;;;;;;;4970070;28;20219;-79
2023/03/21 08:01:39;;;;;;;10.20;2.90;;;;;;;;;;4971730;28;20173;-79
2023/03/21 08:04:05;;;;;;;4.03;2.33;;;;;;;;;;4971376;28;20214;-79
2023/03/21 08:06:31;;;;;;;2.87;2.10;;;;;;;;;;4970693;28;20181;-79
2023/03/21 08:08:56;;;;;;;3.47;2.17;;;;;;;;;;4968497;28;20185;-79
2023/03/21 08:11:23;;;;;;;3.00;2.23;;;;;;;;;;4969236;28;20247;-79
2023/03/21 08:13:50;;;;;;;6.87;4.73;;;;;;;;;;4962951;28;20206;-79
2023/03/21 08:16:15;;;;;;;4.03;3.63;;;;;;;;;;4968737;28;20191;-79
2023/03/21 08:18:41;;;;;;;3.33;2.30;;;;;;;;;;4971339;28;20209;-79
2023/03/21 08:21:06;;;;;;;5.17;4.67;;;;;;;;;;4966492;28;20219;-79
2023/03/21 08:23:32;;;;;;;6.80;6.10;;;;;;;;;;4970373;28;20177;-79
2023/03/21 08:25:57;;;;;;;3.37;2.20;;;;;;;;;;4971125;28;20185;-79
2023/03/21 08:28:22;;;;;;;2.30;2.10;;;;;;;;;;4970607;28;20193;-79
2023/03/21 08:30:48;;;;;;;6.33;5.73;;;;;;;;;;4970842;28;20184;-79
2023/03/21 08:33:13;;;;;;;9.33;8.47;;;;;;;;;;4974070;28;20181;-79
2023/03/21 08:35:39;;;;;;;15.80;14.27;;;;;;;;;;4973651;28;20228;-79
2023/03/21 08:38:04;;;;;;;8.93;8.13;;;;;;;;;;4975270;28;20216;-79
2023/03/21 08:40:30;;;;;;;2.87;2.53;;;;;;;;;;4974109;28;20280;-79
2023/03/21 08:42:55;;;;;;;7.50;6.80;;;;;;;;;;4971693;28;20219;-79
2023/03/21 08:45:21;;;;;;;2.97;1.80;;;;;;;;;;4972026;28;20232;-79
2023/03/21 08:47:46;;;;;;;2.87;1.90;;;;;;;;;;4990627;28;20274;-79
2023/03/21 08:50:14;;;;;;;3.37;1.70;;;;;;;;;;4975063;28;20267;-79
2023/03/21 08:52:40;;;;;;;3.23;2.00;;;;;;;;;;4974297;28;20173;-79
2023/03/21 08:55:05;;;;;;;4.77;4.00;;;;;;;;;;4973540;28;20200;-79
2023/03/21 08:57:30;;;;;;;2.43;2.23;;;;;;;;;;4973864;28;20181;-79
2023/03/21 08:59:56;;;;;;;2.77;1.87;;;;;;;;;;4971399;28;20186;-80
2023/03/21 09:02:21;;;;;;;2.63;2.40;;;;;;;;;;4974099;28;20182;-79
2023/03/21 09:04:47;;;;;;;1.90;1.80;;;;;;;;;;4972280;28;20186;-79
2023/03/21 09:07:13;;;;;;;3.80;2.03;;;;;;;;;;4974486;28;20183;-79
2023/03/21 09:09:40;;;;;;;5.13;2.73;;;;;;;;;;4972952;28;20197;-81
2023/03/21 09:12:06;;;;;;;3.30;2.50;;;;;;;;;;4970511;28;20277;-80
2023/03/21 09:14:32;;;;;;;1.90;1.80;;;;;;;;;;4975472;28;20226;-80
2023/03/21 09:16:57;;;;;;;4.57;2.13;;;;;;;;;;4978226;28;20251;-78
2023/03/21 09:19:23;;;;;;;3.30;2.30;;;;;;;;;;4973877;28;20303;-79
2023/03/21 09:21:48;;;;;;;1.93;1.80;;;;;;;;;;4968373;28;20288;-79
2023/03/21 09:24:14;;;;;;;2.30;2.10;;;;;;;;;;4970180;28;20187;-80
2023/03/21 09:26:40;;;;;;;1.73;1.63;;;;;;;;;;4973249;28;20183;-80
2023/03/21 09:29:06;;;;;;;2.53;2.17;;;;;;;;;;4973306;28;20227;-80
2023/03/21 09:31:32;;;;;;;2.37;1.97;;;;;;;;;;4974761;28;20181;-80
2023/03/21 09:33:57;;;;;;;2.20;1.70;;;;;;;;;;4970600;28;20211;-80
2023/03/21 09:36:26;;;;;;;2.47;1.80;;;;;;;;;;4976744;28;20180;-80
2023/03/21 09:38:52;;;;;;;2.30;1.80;;;;;;;;;;4978648;28;20215;-80
2023/03/21 09:41:36;;;;;;;2.70;1.67;;;;;;;;;;4978207;28;20185;-80
2023/03/21 09:44:13;;;;;;;3.00;2.10;;;;;;;;;;4973164;28;20228;-80
2023/03/21 09:46:57;;;;;;;3.30;2.07;;;;;;;;;;4975234;28;20226;-80
2023/03/21 09:49:24;;;;;;;3.20;2.27;;;;;;;;;;4969683;28;20192;-80
2023/03/21 09:51:51;;;;;;;12.27;9.47;;;;;;;;;;4973394;28;20195;-80
2023/03/21 09:54:20;;;;;;;7.00;5.70;;;;;;;;;;4973460;28;20192;-77
2023/03/21 09:56:46;;;;;;;4.30;3.03;;;;;;;;;;4974763;28;20261;-77
2023/03/21 09:59:18;;;;;;;2.53;2.33;;;;;;;;;;4972455;28;20204;-77
2023/03/21 10:01:46;;;;;;;9.23;7.13;;;;;;;;;;4971842;28;20205;-77
2023/03/21 10:04:12;;;;;;;2.97;2.07;;;;;;;;;;4976414;28;20179;-77
2023/03/21 10:06:40;;;;;;;1.90;1.77;;;;;;;;;;4972292;28;20184;-77
2023/03/21 10:09:08;;;;;;;2.43;2.10;;;;;;;;;;4971280;28;20276;-78
2023/03/21 10:11:52;;;;;;;1.70;1.60;;;;;;;;;;4972253;28;20181;-78
2023/03/21 10:14:25;;;;;;;3.40;3.10;;;;;;;;;;4972530;28;20253;-78
2023/03/21 10:16:55;;;;;;;3.10;2.17;;;;;;;;;;4973977;28;20213;-77
2023/03/21 10:19:22;;;;;;;1.80;1.67;;;;;;;;;;4974122;28;20205;-77
2023/03/21 10:21:48;;;;;;;3.60;2.30;;;;;;;;;;4972104;28;20178;-77
2023/03/21 10:24:16;;;;;;;6.83;6.23;;;;;;;;;;4965999;28;20192;-78
2023/03/21 10:26:42;;;;;;;1.60;1.50;;;;;;;;;;4971724;28;20252;-78
2023/03/21 10:29:10;;;;;;;3.13;2.33;;;;;;;;;;4972704;28;20193;-78
2023/03/21 10:31:36;;;;;;;1.80;1.70;;;;;;;;;;4973632;28;20182;-77
2023/03/21 10:34:02;;;;;;;2.20;2.00;;;;;;;;;;4972571;28;20203;-78
2023/03/21 10:36:29;;;;;;;3.10;2.83;;;;;;;;;;4972439;28;20181;-77
2023/03/21 10:38:54;;;;;;;6.17;3.17;;;;;;;;;;4970834;28;20200;-77
2023/03/21 10:41:20;;;;;;;6.93;6.23;;;;;;;;;;4969353;28;20186;-78
2023/03/21 10:44:02;;;;;;;1.90;1.63;;;;;;;;;;4971927;28;20236;-78
2023/03/21 10:46:27;;;;;;;1.77;1.67;;;;;;;;;;4971185;28;20222;-78
2023/03/21 10:48:53;;;;;;;1.77;1.67;;;;;;;;;;4972632;28;20224;-78
2023/03/21 10:51:20;;;;;;;3.17;1.50;;;;;;;;;;4972015;28;20237;-78
2023/03/21 10:53:50;;;;;;;2.40;1.70;;;;;;;;;;4976325;28;20273;-78
2023/03/21 10:56:15;;;;;;;1.90;1.60;;;;;;;;;;4974427;28;20186;-78
2023/03/21 10:58:43;;;;;;;2.80;1.80;;;;;;;;;;4971190;28;20211;-78
2023/03/21 11:01:13;;;;;;;4.23;2.23;;;;;;;;;;4972178;28;20187;-78
2023/03/21 11:03:45;;;;;;;5.63;2.40;;;;;;;;;;4972560;28;20179;-78
2023/03/21 11:06:37;;;;;;;2.10;1.70;;;;;;;;;;4970893;28;20183;-78
2023/03/21 11:09:07;;;;;;;2.70;1.70;;;;;;;;;;4969506;28;20227;-78
2023/03/21 11:11:49;;;;;;;3.27;2.00;;;;;;;;;;4964774;28;20187;-78
2023/03/21 11:14:27;;;;;;;2.50;1.90;;;;;;;;;;4971266;28;20200;-78
2023/03/21 11:16:52;;;;;;;2.10;1.90;;;;;;;;;;4972021;28;20205;-78
2023/03/21 11:19:27;;;;;;;1.70;1.60;;;;;;;;;;4973790;28;20210;-78
2023/03/21 11:21:57;;;;;;;2.13;1.67;;;;;;;;;;4972832;28;20208;-78
2023/03/21 11:24:23;;;;;;;3.73;1.70;;;;;;;;;;4982592;28;20192;-78
2023/03/21 11:26:49;;;;;;;2.87;1.60;;;;;;;;;;4972086;28;20203;-78
2023/03/21 11:29:22;;;;;;;2.83;1.87;;;;;;;;;;4971533;28;20182;-78
2023/03/21 11:31:47;;;;;;;2.10;1.90;;;;;;;;;;4971104;28;20188;-78
2023/03/21 11:34:23;;;;;;;3.07;2.10;;;;;;;;;;4971319;28;20192;-78
2023/03/21 11:36:50;;;;;;;2.20;1.80;;;;;;;;;;4968738;28;20186;-78
2023/03/21 11:39:44;;;;;;;3.03;2.00;;;;;;;;;;4971290;28;20322;-78
2023/03/21 11:42:25;;;;;;;2.53;1.87;;;;;;;;;;4972032;28;20246;-78
2023/03/21 11:44:56;;;;;;;1.80;1.70;;;;;;;;;;4971053;28;20289;-78
2023/03/21 11:47:21;;;;;;;1.90;1.63;;;;;;;;;;4971640;28;20200;-78
2023/03/21 11:49:46;;;;;;;2.40;1.77;;;;;;;;;;4970048;28;20187;-78
2023/03/21 11:52:20;;;;;;;6.80;2.37;;;;;;;;;;4970720;28;20190;-78
2023/03/21 11:54:55;;;;;;;2.60;2.13;;;;;;;;;;4967496;28;20183;-78
2023/03/21 11:57:21;;;;;;;4.77;2.00;;;;;;;;;;4969683;28;20346;-78
2023/03/21 11:59:59;;;;;;;3.37;1.90;;;;;;;;;;4972513;28;20209;-78
2023/03/21 12:02:43;;;;;;;2.00;1.80;;;;;;;;;;4972336;28;20195;-78
2023/03/21 12:05:15;;;;;;;3.70;2.90;;;;;;;;;;4983255;28;20183;-78
2023/03/21 12:07:52;;;;;;;4.03;2.63;;;;;;;;;;4974362;28;20182;-78
2023/03/21 12:10:18;;;;;;;2.80;2.03;;;;;;;;;;4971945;28;20204;-78
2023/03/21 12:12:55;;;;;;;2.87;2.20;;;;;;;;;;4974044;28;20228;-79
2023/03/21 12:15:28;;;;;;;2.07;1.70;;;;;;;;;;4976359;28;20179;-78
2023/03/21 12:18:03;;;;;;;4.00;2.40;;;;;;;;;;4977788;28;20179;-78
2023/03/21 12:20:29;;;;;;;4.90;2.20;;;;;;;;;;4995788;28;20173;-79
2023/03/21 12:22:58;;;;;;;3.07;2.20;;;;;;;;;;4973682;28;20245;-78
2023/03/21 12:25:32;;;;;;;4.20;3.57;;;;;;;;;;4974203;28;20205;-78
2023/03/21 12:28:00;;;;;;;1.90;1.77;;;;;;;;;;4987606;28;20224;-78
2023/03/21 12:30:25;;;;;;;2.27;2.00;;;;;;;;;;4974660;28;20405;-78
2023/03/21 12:33:03;;;;;;;2.63;1.80;;;;;;;;;;4975096;28;20182;-78
2023/03/21 12:35:28;;;;;;;1.97;1.80;;;;;;;;;;4972571;28;20182;-78
2023/03/21 12:38:04;;;;;;;1.93;1.73;;;;;;;;;;4974093;28;20177;-78
2023/03/21 12:40:47;;;;;;;3.87;1.63;;;;;;;;;;4972223;28;20210;-78
2023/03/21 12:43:33;;;;;;;4.47;3.67;;;;;;;;;;4988334;28;20202;-78
2023/03/21 12:46:17;;;;;;;9.43;4.60;;;;;;;;;;4963866;28;20225;-79
2023/03/21 12:49:21;;;;;;;3.77;2.10;;;;;;;;;;4974210;28;20219;-78
2023/03/21 12:51:47;;;;;;;2.17;1.80;;;;;;;;;;4927610;29;20178;-78
2023/03/21 12:54:30;;;;;;;2.23;2.03;;;;;;;;;;4932466;29;20289;-78
2023/03/21 12:57:04;;;;;;;2.10;1.90;;;;;;;;;;4912386;28;20281;-78
2023/03/21 12:59:45;;;;;;;2.20;2.00;;;;;;;;;;4927695;29;20205;-78
2023/03/21 13:02:13;;;;;;;5.40;2.30;;;;;;;;;;4913123;28;20184;-79
2023/03/21 13:04:44;;;;;;;1.77;1.67;;;;;;;;;;4920569;29;20174;-79
2023/03/21 13:07:13;;;;;;;2.53;1.60;;;;;;;;;;4928447;29;20187;-79
2023/03/21 13:09:39;;;;;;;3.23;1.90;;;;;;;;;;4933099;29;20201;-79
2023/03/21 13:12:18;;;;;;;3.23;1.80;;;;;;;;;;4924921;29;20296;-79
2023/03/21 13:15:01;;;;;;;1.90;1.70;;;;;;;;;;4918110;29;20183;-79
2023/03/21 13:17:29;;;;;;;2.17;1.60;;;;;;;;;;4935429;29;20200;-79
2023/03/21 13:20:06;;;;;;;2.13;1.93;;;;;;;;;;4930728;29;20237;-79
2023/03/21 13:22:31;;;;;;;2.50;2.20;;;;;;;;;;4957781;28;20321;-79
2023/03/21 13:25:03;;;;;;;2.97;2.07;;;;;;;;;;4976790;28;20241;-78
2023/03/21 13:27:31;;;;;;;3.53;1.70;;;;;;;;;;4973987;28;20181;-79
2023/03/21 13:30:07;;;;;;;2.07;1.67;;;;;;;;;;4965738;28;20182;-79
2023/03/21 13:32:37;;;;;;;3.67;2.07;;;;;;;;;;4972810;28;20181;-79
2023/03/21 13:35:15;;;;;;;3.47;2.20;;;;;;;;;;4973812;28;20182;-79
2023/03/21 13:38:01;;;;;;;2.90;2.10;;;;;;;;;;4973134;28;20179;-79
2023/03/21 13:40:33;;;;;;;2.27;2.07;;;;;;;;;;4972640;28;20236;-79
2023/03/21 13:42:59;;;;;;;2.20;2.00;;;;;;;;;;4973083;28;20206;-79
2023/03/21 13:45:28;;;;;;;2.43;2.10;;;;;;;;;;4973046;28;20367;-79
2023/03/21 13:47:57;;;;;;;3.90;2.00;;;;;;;;;;4972453;28;20201;-79
2023/03/21 13:50:24;;;;;;;2.43;2.10;;;;;;;;;;4972561;28;20186;-78
2023/03/21 13:53:08;;;;;;;3.10;2.27;;;;;;;;;;4972863;28;20262;-79
2023/03/21 13:55:41;;;;;;;2.60;2.37;;;;;;;;;;4969440;28;20183;-79
2023/03/21 13:58:33;;;;;;;3.03;2.30;;;;;;;;;;4973377;28;20223;-79
2023/03/21 14:01:17;;;;;;;3.43;2.53;;;;;;;;;;4942565;28;20193;-79
2023/03/21 14:03:44;;;;;;;2.73;2.13;;;;;;;;;;4972803;28;20190;-79
2023/03/21 14:06:09;;;;;;;2.83;2.33;;;;;;;;;;4971677;28;20190;-79
2023/03/21 14:08:35;;;;;;;2.93;2.37;;;;;;;;;;4972927;28;20184;-80
2023/03/21 14:11:03;;;;;;;2.90;2.60;;;;;;;;;;4973055;28;20179;-80
2023/03/21 14:13:28;;;;;;;2.50;2.27;;;;;;;;;;4973145;28;20211;-79
2023/03/21 14:15:56;;;;;;;2.17;1.80;;;;;;;;;;4972832;28;20280;-80
2023/03/21 14:18:23;;;;;;;2.37;2.17;;;;;;;;;;4971196;28;20251;-80
2023/03/21 14:20:52;;;;;;;4.10;2.37;;;;;;;;;;4971693;28;20175;-79
2023/03/21 14:23:19;;;;;;;2.30;2.00;;;;;;;;;;4971619;28;20204;-80
2023/03/21 14:25:46;;;;;;;6.03;2.33;;;;;;;;;;4972636;28;20184;-79
2023/03/21 14:28:32;;;;;;;2.77;2.00;;;;;;;;;;4972126;28;20189;-80
2023/03/21 14:30:59;;;;;;;1.93;1.83;;;;;;;;;;4969554;28;20189;-80
2023/03/21 14:33:26;;;;;;;2.23;2.03;;;;;;;;;;4971247;28;20196;-80
2023/03/21 14:35:51;;;;;;;1.90;1.80;;;;;;;;;;4972786;28;20184;-79
2023/03/21 14:38:18;;;;;;;2.70;1.83;;;;;;;;;;4971739;28;20197;-79
2023/03/21 14:40:47;;;;;;;2.63;2.00;;;;;;;;;;4971497;28;20183;-80
2023/03/21 14:43:13;;;;;;;2.07;1.83;;;;;;;;;;4973168;28;20300;-80
2023/03/21 14:45:38;;;;;;;1.90;1.70;;;;;;;;;;4965547;28;20297;-80
2023/03/21 14:48:05;;;;;;;1.70;1.60;;;;;;;;;;4971995;28;20184;-80
2023/03/21 14:50:36;;;;;;;1.70;1.60;;;;;;;;;;4972200;28;20180;-79
2023/03/21 14:53:02;;;;;;;2.17;1.80;;;;;;;;;;4971720;28;20242;-80